Time;durP1;ratioP1;P1;durP2;ratioP2;P2;SDS_P1;SDS_P2;PMS_P1;PMS_P2;Temp;Humidity;BMP_temperature;BMP_pressure;BME280_temperature;BME280_humidity;BME280_pressure;Samples;Min_cycle;Max_cycle;Signal;HPM_P1;HPM_P2
2023/12/16 00:00:06;;;;;;;51.90;11.47;;;;;;;4.56;82.62;97857.22;4890287;29;20240;-73
2023/12/16 00:02:38;;;;;;;25.57;6.50;;;;;;;3.78;83.00;97722.06;4904486;29;20233;-74
2023/12/16 00:05:06;;;;;;;57.53;12.07;;;;;;;4.27;83.02;97789.97;4889679;29;20232;-74
2023/12/16 00:07:34;;;;;;;26.93;6.50;;;;;;;5.11;82.92;97962.75;4889121;29;20226;-75
2023/12/16 00:10:02;;;;;;;33.40;7.70;;;;;;;4.78;83.78;97922.84;4889942;29;20193;-73
2023/12/16 00:12:33;;;;;;;28.23;6.83;;;;;;;4.99;84.39;97964.59;4889090;29;20240;-74
2023/12/16 00:15:04;;;;;;;51.30;10.87;;;;;;;4.77;84.20;97905.78;4904456;29;20199;-74
2023/12/16 00:17:35;;;;;;;41.47;9.33;;;;;;;3.38;85.55;97764.19;4889050;29;20226;-74
2023/12/16 00:20:05;;;;;;;47.37;10.47;;;;;;;4.28;85.77;97888.25;4904319;29;20192;-74
2023/12/16 00:22:38;;;;;;;24.07;6.33;;;;;;;4.04;85.36;97827.75;4889521;29;20192;-73
2023/12/16 00:25:09;;;;;;;47.73;10.63;;;;;;;4.94;85.02;97986.03;4889471;29;20298;-74
2023/12/16 00:27:38;;;;;;;26.73;6.70;;;;;;;5.13;84.63;97998.69;4904831;29;20239;-74
2023/12/16 00:30:09;;;;;;;58.80;12.57;;;;;;;4.05;84.00;97822.63;4888395;29;20191;-75
2023/12/16 00:32:39;;;;;;;28.17;7.03;;;;;;;3.77;83.22;97735.75;4889584;29;20472;-75
2023/12/16 00:35:08;;;;;;;47.60;10.77;;;;;;;4.88;83.65;97944.16;4903921;29;20200;-75
2023/12/16 00:37:36;;;;;;;30.13;7.20;;;;;;;3.56;84.67;97771.75;4905671;29;20194;-74
2023/12/16 00:40:04;;;;;;;61.30;12.97;;;;;;;5.19;85.20;97996.06;4906923;29;20249;-74
2023/12/16 00:42:32;;;;;;;26.80;6.63;;;;;;;4.47;84.28;97889.81;4889743;29;20635;-73
2023/12/16 00:44:59;;;;;;;52.53;11.00;;;;;;;3.26;84.22;97748.03;4932140;29;20724;-74
2023/12/16 00:47:29;;;;;;;23.97;6.00;;;;;;;4.48;84.25;97938.50;4927755;29;20265;-74
2023/12/16 00:49:57;;;;;;;35.50;8.03;;;;;;;4.34;85.02;97898.44;4925291;29;20277;-73
2023/12/16 00:52:25;;;;;;;18.17;4.77;;;;;;;3.44;83.39;97736.00;4927163;29;20201;-74
2023/12/16 00:54:55;;;;;;;50.53;10.87;;;;;;;4.83;83.48;97958.75;4909465;29;20201;-73
2023/12/16 00:57:23;;;;;;;23.90;6.13;;;;;;;4.73;82.93;97924.63;4914036;29;20186;-73
2023/12/16 00:59:51;;;;;;;48.87;10.67;;;;;;;3.62;83.43;97812.69;4913917;29;20223;-73
2023/12/16 01:02:18;;;;;;;14.80;4.53;;;;;;;4.00;84.98;97938.81;4931334;29;20432;-74
2023/12/16 01:04:46;;;;;;;42.37;9.60;;;;;;;4.30;85.09;97966.84;4928840;29;20210;-74
2023/12/16 01:07:16;;;;;;;18.63;5.10;;;;;;;4.07;84.43;97863.63;4915165;29;20196;-74
2023/12/16 01:09:43;;;;;;;27.07;6.67;;;;;;;4.93;84.28;98032.22;4913138;29;20189;-74
2023/12/16 01:12:12;;;;;;;18.97;5.17;;;;;;;4.59;85.20;97975.19;4915643;29;20189;-73
2023/12/16 01:14:40;;;;;;;51.57;11.20;;;;;;;3.18;83.94;97736.16;4928615;29;20469;-72
2023/12/16 01:17:08;;;;;;;47.47;10.57;;;;;;;4.82;85.05;98001.50;4930848;29;20194;-73
2023/12/16 01:19:41;;;;;;;39.47;9.27;;;;;;;5.02;84.74;98029.59;4913837;29;20710;-73
2023/12/16 01:22:14;;;;;;;26.07;6.47;;;;;;;4.27;83.21;97882.25;4915732;29;20272;-73
2023/12/16 01:24:43;;;;;;;26.43;6.63;;;;;;;3.81;82.77;97799.72;4913398;29;20279;-75
2023/12/16 01:27:14;;;;;;;22.73;5.97;;;;;;;4.72;83.25;97958.81;4914883;29;20189;-73
2023/12/16 01:29:42;;;;;;;25.97;6.67;;;;;;;3.90;82.45;97778.31;4913846;29;20205;-74
2023/12/16 01:32:10;;;;;;;31.30;7.63;;;;;;;4.10;82.72;97861.03;4914087;29;20194;-74
2023/12/16 01:34:37;;;;;;;24.47;6.50;;;;;;;3.98;82.52;97807.28;4913880;29;20206;-74
2023/12/16 01:37:05;;;;;;;25.83;6.53;;;;;;;3.58;82.35;97770.91;4915473;29;20198;-73
2023/12/16 01:39:33;;;;;;;23.17;5.60;;;;;;;4.93;83.04;97979.19;4928111;29;20192;-73
2023/12/16 01:42:02;;;;;;;26.73;6.67;;;;;;;4.08;81.77;97842.28;4929547;29;20195;-74
2023/12/16 01:44:33;;;;;;;17.00;4.47;;;;;;;4.71;79.26;98034.09;4913122;29;20240;-74
2023/12/16 01:47:04;;;;;;;22.77;5.77;;;;;;;3.33;82.08;97829.91;4913953;29;20190;-73
2023/12/16 01:49:32;;;;;;;22.30;5.67;;;;;;;4.18;81.15;97931.03;4913208;29;20230;-73
2023/12/16 01:52:00;;;;;;;25.17;6.20;;;;;;;4.29;81.07;97936.06;4913894;29;20197;-73
2023/12/16 01:54:28;;;;;;;19.10;4.83;;;;;;;4.20;80.77;97915.66;4913302;29;20527;-73
2023/12/16 01:56:59;;;;;;;14.80;4.20;;;;;;;4.51;80.67;97994.06;4913928;29;20246;-74
2023/12/16 01:59:28;;;;;;;26.13;6.77;;;;;;;4.41;80.22;97975.28;4928982;29;20197;-73
2023/12/16 02:01:58;;;;;;;25.80;6.63;;;;;;;4.81;80.33;98047.72;4914171;29;20197;-74
2023/12/16 02:04:26;;;;;;;23.13;6.17;;;;;;;3.96;82.53;97888.44;4913673;29;20193;-73
2023/12/16 02:06:55;;;;;;;23.40;6.63;;;;;;;4.11;85.57;98052.38;4913328;29;20502;-73
2023/12/16 02:09:23;;;;;;;17.40;5.10;;;;;;;3.66;86.01;97948.41;4928932;29;20284;-73
2023/12/16 02:11:54;;;;;;;27.83;7.50;;;;;;;4.07;86.68;97986.63;4913453;29;20514;-74
2023/12/16 02:14:22;;;;;;;60.73;13.43;;;;;;;3.95;85.35;97943.13;4928671;29;20191;-74
2023/12/16 02:16:49;;;;;;;44.97;16.03;;;;;;;2.56;85.54;97741.53;4929145;29;20205;-74
2023/12/16 02:19:27;;;;;;;32.10;9.53;;;;;;;4.25;84.49;97994.22;4928928;29;20198;-74
2023/12/16 02:21:55;;;;;;;44.77;10.37;;;;;;;4.27;85.23;98007.00;4928220;29;20559;-74
2023/12/16 02:24:23;;;;;;;55.50;12.47;;;;;;;3.93;84.71;97966.22;4928329;29;20203;-74
2023/12/16 02:26:53;;;;;;;25.97;6.80;;;;;;;4.21;84.28;97999.34;4928360;29;20205;-74
2023/12/16 02:29:21;;;;;;;37.27;8.63;;;;;;;4.40;84.21;97985.56;4944109;29;20236;-73
2023/12/16 02:31:49;;;;;;;35.93;8.47;;;;;;;3.57;83.97;97876.72;4914932;29;20375;-74
2023/12/16 02:34:17;;;;;;;61.87;13.47;;;;;;;3.17;84.35;97819.75;4912692;29;20202;-74
2023/12/16 02:36:44;;;;;;;47.23;10.83;;;;;;;4.49;85.55;98022.25;4928049;29;20197;-74
2023/12/16 02:39:12;;;;;;;40.70;9.97;;;;;;;2.79;85.86;97770.44;4928140;29;20195;-73
2023/12/16 02:41:44;;;;;;;48.20;10.80;;;;;;;3.72;85.94;97912.50;4912606;29;20195;-73
2023/12/16 02:44:12;;;;;;;31.90;7.47;;;;;;;3.32;86.04;97858.94;4943818;29;20285;-73
2023/12/16 02:46:40;;;;;;;59.27;12.60;;;;;;;3.69;85.80;97921.94;4912482;29;20195;-73
2023/12/16 02:49:07;;;;;;;48.97;11.10;;;;;;;4.16;85.48;97971.22;4912274;29;20536;-73
2023/12/16 02:51:36;;;;;;;30.80;7.20;;;;;;;4.15;84.26;98002.81;4912716;29;20197;-74
2023/12/16 02:54:03;;;;;;;33.90;7.67;;;;;;;4.01;85.63;98048.16;4928435;29;20196;-74
2023/12/16 02:56:34;;;;;;;50.43;10.87;;;;;;;4.16;85.43;98089.13;4912335;29;20198;-74
2023/12/16 02:59:02;;;;;;;43.53;9.80;;;;;;;4.04;85.15;98022.50;4928139;29;20182;-74
2023/12/16 03:01:29;;;;;;;45.23;10.03;;;;;;;3.90;85.36;98003.78;4927714;29;20229;-73
2023/12/16 03:03:59;;;;;;;53.23;11.60;;;;;;;4.49;84.22;98081.25;4912226;29;20185;-74
2023/12/16 03:06:27;;;;;;;32.37;7.57;;;;;;;4.46;83.96;98094.09;4927623;29;20550;-74
2023/12/16 03:08:55;;;;;;;40.70;9.20;;;;;;;2.89;84.64;97855.66;4911689;29;20232;-74
2023/12/16 03:11:22;;;;;;;44.47;9.60;;;;;;;3.60;81.20;98014.16;4912518;29;20463;-73
2023/12/16 03:13:51;;;;;;;49.70;10.90;;;;;;;2.89;83.76;97887.22;4912096;29;20201;-73
2023/12/16 03:16:19;;;;;;;47.73;10.03;;;;;;;3.01;83.88;97894.03;4927806;29;20201;-74
2023/12/16 03:18:46;;;;;;;51.73;10.47;;;;;;;3.29;85.80;97952.81;4911902;28;20488;-74
2023/12/16 03:21:14;;;;;;;57.50;11.87;;;;;;;2.46;84.78;97804.63;4927611;29;20744;-75
2023/12/16 03:23:42;;;;;;;52.27;11.13;;;;;;;4.17;84.61;98054.91;4927363;29;20188;-74
2023/12/16 03:26:12;;;;;;;29.20;7.00;;;;;;;3.89;84.88;98008.06;4913169;29;20201;-74
2023/12/16 03:28:40;;;;;;;58.63;12.27;;;;;;;3.20;83.87;97862.38;4913575;29;20280;-74
2023/12/16 03:31:07;;;;;;;29.20;8.30;;;;;;;3.90;82.77;98014.03;4912112;29;20268;-74
2023/12/16 03:33:38;;;;;;;41.97;9.50;;;;;;;4.10;83.53;98050.69;4912174;29;20221;-74
2023/12/16 03:36:17;;;;;;;30.13;7.17;;;;;;;2.78;84.11;97809.66;4911774;29;20194;-74
2023/12/16 03:38:45;;;;;;;42.63;9.13;;;;;;;3.60;83.59;97951.00;4911516;29;20495;-73
2023/12/16 03:41:15;;;;;;;29.40;6.33;;;;;;;4.58;83.03;98121.38;4912310;29;20508;-74
2023/12/16 03:43:43;;;;;;;49.67;12.50;;;;;;;3.13;83.72;97847.94;4910486;29;20190;-73
2023/12/16 03:46:17;;;;;;;28.23;7.50;;;;;;;4.48;82.56;98064.16;4928427;29;20273;-74
2023/12/16 03:48:47;;;;;;;45.87;9.97;;;;;;;3.99;82.00;98011.44;4910922;29;20238;-75
2023/12/16 03:51:15;;;;;;;28.80;7.13;;;;;;;3.14;83.08;97911.03;4927636;29;20514;-75
2023/12/16 03:53:45;;;;;;;47.60;10.17;;;;;;;3.81;81.73;97973.09;4926698;29;20515;-75
2023/12/16 03:56:18;;;;;;;27.10;6.90;;;;;;;4.36;81.61;98089.88;4911967;29;20292;-73
2023/12/16 03:58:51;;;;;;;44.93;9.93;;;;;;;4.45;80.87;98102.63;4910630;29;20197;-73
2023/12/16 04:01:19;;;;;;;29.70;7.37;;;;;;;3.03;81.53;97870.13;4912295;29;20319;-74
2023/12/16 04:03:49;;;;;;;51.17;11.17;;;;;;;3.18;83.02;97918.69;4926391;29;20201;-74
2023/12/16 04:06:16;;;;;;;24.10;6.43;;;;;;;3.22;81.69;97886.25;4912470;29;20193;-74
2023/12/16 04:08:49;;;;;;;48.20;10.83;;;;;;;3.37;81.93;97918.63;4910488;29;20245;-74
2023/12/16 04:11:17;;;;;;;24.60;6.63;;;;;;;4.07;81.18;98019.94;4912664;29;20241;-74
2023/12/16 04:13:44;;;;;;;54.90;12.17;;;;;;;3.82;80.65;98001.25;4909697;29;20197;-74
2023/12/16 04:16:12;;;;;;;26.00;6.83;;;;;;;4.74;80.20;98131.56;4927931;29;20212;-75
2023/12/16 04:18:40;;;;;;;57.87;12.13;;;;;;;4.47;78.42;98044.50;4909833;29;20273;-74
2023/12/16 04:21:08;;;;;;;12.33;3.77;;;;;;;3.83;76.87;97936.34;4912542;29;20244;-75
2023/12/16 04:23:39;;;;;;;49.67;10.73;;;;;;;5.03;76.11;98153.66;4912516;29;20201;-74
2023/12/16 04:26:07;;;;;;;19.67;5.77;;;;;;;4.97;76.94;98159.66;4927329;29;20200;-74
2023/12/16 04:28:35;;;;;;;32.73;8.50;;;;;;;4.58;78.98;98118.81;4909704;29;20259;-74
2023/12/16 04:31:02;;;;;;;20.00;6.90;;;;;;;4.30;79.64;98055.72;4912035;29;20585;-75
2023/12/16 04:33:30;;;;;;;60.23;13.30;;;;;;;4.62;79.35;98154.72;4909231;29;20264;-74
2023/12/16 04:35:58;;;;;;;34.67;8.93;;;;;;;4.74;79.87;98146.94;4912016;29;20219;-74
2023/12/16 04:38:26;;;;;;;37.97;10.50;;;;;;;4.59;79.58;98100.88;4909587;29;20196;-73
2023/12/16 04:40:54;;;;;;;23.37;7.17;;;;;;;3.73;78.84;97992.78;4928155;29;20218;-74
2023/12/16 04:43:21;;;;;;;59.23;12.77;;;;;;;3.30;78.65;97916.09;4908952;29;20230;-74
2023/12/16 04:45:49;;;;;;;16.90;5.83;;;;;;;3.19;79.07;97930.63;4927598;29;20270;-75
2023/12/16 04:48:16;;;;;;;47.50;10.30;;;;;;;4.16;77.35;98129.25;4925403;29;20237;-74
2023/12/16 04:50:44;;;;;;;27.43;6.47;;;;;;;2.94;76.71;97915.34;4943013;29;20452;-73
2023/12/16 04:53:12;;;;;;;46.07;10.10;;;;;;;3.73;74.74;98044.00;4909217;29;20195;-73
2023/12/16 04:55:39;;;;;;;36.27;7.87;;;;;;;4.21;71.63;98145.47;4927536;29;20556;-74
2023/12/16 04:58:08;;;;;;;52.83;11.47;;;;;;;4.30;70.63;98189.91;4925543;29;20228;-75
2023/12/16 05:00:36;;;;;;;57.17;12.30;;;;;;;3.85;72.39;98123.38;4927369;29;20272;-72
2023/12/16 05:03:03;;;;;;;51.40;12.83;;;;;;;3.71;71.24;98125.94;4909308;29;20193;-73
2023/12/16 05:05:31;;;;;;;70.70;14.60;;;;;;;3.81;72.19;98162.66;4927263;29;20527;-74
2023/12/16 05:07:59;;;;;;;60.07;13.97;;;;;;;2.82;74.26;97985.28;4924656;29;20502;-72
2023/12/16 05:10:29;;;;;;;44.03;10.17;;;;;;;2.45;76.53;97932.44;4927477;29;20300;-73
2023/12/16 05:12:57;;;;;;;61.43;13.17;;;;;;;4.07;75.89;98173.72;4924464;29;20194;-74
2023/12/16 05:15:24;;;;;;;29.27;7.37;;;;;;;4.11;74.87;98153.19;4912245;29;20190;-74
2023/12/16 05:17:52;;;;;;;50.73;11.23;;;;;;;3.38;73.79;98089.31;4909274;29;20204;-73
2023/12/16 05:20:20;;;;;;;40.10;9.37;;;;;;;4.02;75.08;98177.97;4928895;29;20273;-73
2023/12/16 05:22:47;;;;;;;44.33;9.03;;;;;;;2.71;68.15;97993.78;4909480;29;20224;-74
2023/12/16 05:25:22;;;;;;;57.80;11.40;;;;;;;2.34;68.74;98001.44;4927478;29;20217;-73
2023/12/16 05:27:50;;;;;;;50.37;10.20;;;;;;;2.60;70.91;98042.34;4909336;29;20442;-73
2023/12/16 05:30:20;;;;;;;28.67;6.40;;;;;;;2.60;70.23;98037.25;4927644;29;20229;-73
2023/12/16 05:32:51;;;;;;;57.23;11.53;;;;;;;2.31;70.11;98005.66;4924248;29;20272;-73
2023/12/16 05:35:25;;;;;;;28.87;6.50;;;;;;;3.68;69.69;98250.59;4943303;29;20593;-73
2023/12/16 05:37:57;;;;;;;56.00;11.13;;;;;;;3.39;66.83;98167.78;4908928;29;20197;-73
2023/12/16 05:40:25;;;;;;;17.50;4.17;;;;;;;3.44;68.56;98176.34;4911564;29;20204;-73
2023/12/16 05:42:54;;;;;;;50.17;10.37;;;;;;;3.76;67.91;98231.81;4910239;29;20338;-73
2023/12/16 05:45:23;;;;;;;22.70;5.30;;;;;;;2.84;67.67;98075.66;4914992;29;20685;-72
2023/12/16 05:47:51;;;;;;;35.60;7.90;;;;;;;3.49;69.29;98187.41;4911226;29;20256;-72
2023/12/16 05:50:19;;;;;;;26.80;5.97;;;;;;;2.07;67.49;97946.88;4930715;29;20229;-73
2023/12/16 05:52:50;;;;;;;65.10;13.00;;;;;;;3.86;69.21;98253.16;4928368;29;20193;-73
2023/12/16 05:55:18;;;;;;;27.07;6.13;;;;;;;4.03;68.75;98230.94;4914223;29;20251;-73
2023/12/16 05:57:45;;;;;;;55.73;11.23;;;;;;;4.07;67.33;98248.03;4912621;29;20264;-73
2023/12/16 06:00:16;;;;;;;19.70;5.13;;;;;;;3.30;68.15;98140.47;4929678;29;20213;-72
2023/12/16 06:02:52;;;;;;;58.30;11.87;;;;;;;3.45;67.77;98152.44;4913123;29;20204;-72
2023/12/16 06:05:27;;;;;;;21.20;5.10;;;;;;;4.04;67.77;98268.53;4929474;29;20207;-72
2023/12/16 06:07:55;;;;;;;60.03;12.07;;;;;;;2.20;67.42;97971.59;4911937;29;20398;-71
2023/12/16 06:10:29;;;;;;;23.80;5.70;;;;;;;3.37;66.09;98131.97;4929250;29;20506;-72
2023/12/16 06:13:00;;;;;;;51.07;10.57;;;;;;;3.33;66.87;98149.88;4926878;29;20221;-73
2023/12/16 06:15:38;;;;;;;27.77;6.77;;;;;;;4.40;66.77;98273.63;4914203;29;20185;-71
2023/12/16 06:18:06;;;;;;;45.07;9.53;;;;;;;3.25;66.12;98109.78;4927494;29;20316;-72
2023/12/16 06:20:34;;;;;;;33.07;7.03;;;;;;;2.93;66.23;98016.81;4929257;29;20201;-73
2023/12/16 06:23:03;;;;;;;54.03;11.30;;;;;;;3.14;66.13;97982.66;4928488;29;20185;-74
2023/12/16 06:25:30;;;;;;;28.67;6.90;;;;;;;4.57;67.83;98219.72;4913394;29;20547;-73
2023/12/16 06:28:13;;;;;;;54.60;11.73;;;;;;;4.51;67.74;98201.78;4928564;29;20197;-73
2023/12/16 06:30:42;;;;;;;34.03;7.80;;;;;;;3.40;64.35;98015.91;4913041;29;20231;-72
2023/12/16 06:33:15;;;;;;;30.07;7.00;;;;;;;3.87;67.74;98131.91;4929080;29;20393;-73
2023/12/16 06:35:45;;;;;;;27.13;6.30;;;;;;;4.79;65.23;98270.97;4912282;29;20503;-72
2023/12/16 06:38:16;;;;;;;30.00;7.40;;;;;;;3.96;65.61;98144.69;4913324;29;20193;-72
2023/12/16 06:40:53;;;;;;;38.00;9.40;;;;;;;4.90;67.92;98302.56;4912959;29;20201;-72
2023/12/16 06:43:24;;;;;;;24.33;6.73;;;;;;;4.98;67.54;98317.94;4914396;29;20193;-74
2023/12/16 06:45:54;;;;;;;27.70;7.87;;;;;;;4.93;68.00;98332.50;4913128;29;20241;-74
2023/12/16 06:48:27;;;;;;;36.70;9.57;;;;;;;4.22;67.36;98237.78;4914434;29;20205;-74
2023/12/16 06:50:57;;;;;;;36.13;10.87;;;;;;;3.81;67.74;98154.97;4908241;29;20230;-73
2023/12/16 06:53:30;;;;;;;36.80;9.27;;;;;;;4.14;67.84;98230.06;4909619;29;20672;-73
2023/12/16 06:55:58;;;;;;;34.33;8.93;;;;;;;5.12;68.33;98354.69;4922994;29;20508;-73
2023/12/16 06:58:28;;;;;;;27.80;6.63;;;;;;;4.07;65.38;98201.91;4925528;29;20214;-73
2023/12/16 07:01:15;;;;;;;35.67;8.10;;;;;;;3.48;66.54;98162.69;4895034;29;20200;-72
2023/12/16 07:03:54;;;;;;;24.77;5.83;;;;;;;4.60;66.66;98342.81;4909719;29;20194;-72
2023/12/16 07:06:26;;;;;;;39.17;8.50;;;;;;;3.95;65.71;98240.34;4892850;29;20194;-73
2023/12/16 07:09:19;;;;;;;69.27;15.63;;;;;;;3.65;69.26;98171.19;4924166;29;20235;-72
2023/12/16 07:11:56;;;;;;;40.70;10.80;;;;;;;4.63;70.52;98355.66;4895715;29;20198;-72
2023/12/16 07:15:10;;;;;;;57.13;11.77;;;;;;;4.60;65.67;98364.22;4914311;29;20550;-73
2023/12/16 07:17:44;;;;;;;87.13;18.33;;;;;;;4.66;66.90;98353.94;4893635;29;20394;-74
2023/12/16 07:20:15;;;;;;;69.50;14.50;;;;;;;3.67;64.42;98230.97;4908263;29;20250;-73
2023/12/16 07:22:46;;;;;;;71.43;13.93;;;;;;;4.15;63.84;98300.13;4924426;29;20186;-73
2023/12/16 07:25:13;;;;;;;68.63;13.27;;;;;;;3.23;62.85;98187.41;4892777;29;20277;-72
2023/12/16 07:27:44;;;;;;;71.37;13.43;;;;;;;4.52;63.71;98376.19;4939732;29;20238;-73
2023/12/16 07:30:23;;;;;;;43.03;8.57;;;;;;;4.34;64.77;98385.59;4909620;29;20249;-75
2023/12/16 07:32:53;;;;;;;70.93;13.93;;;;;;;4.06;64.70;98307.81;4908556;29;20202;-73
2023/12/16 07:35:21;;;;;;;63.90;12.27;;;;;;;3.72;64.84;98295.84;4893691;29;20363;-74
2023/12/16 07:37:52;;;;;;;80.03;15.20;;;;;;;4.27;64.18;98369.34;4892836;29;20497;-74
2023/12/16 07:40:23;;;;;;;52.83;10.73;;;;;;;2.59;63.18;98144.63;4906205;29;20475;-74
2023/12/16 07:43:06;;;;;;;47.23;9.43;;;;;;;4.55;64.35;98431.78;4911041;29;20222;-73
2023/12/16 07:45:49;;;;;;;45.20;9.47;;;;;;;4.20;64.16;98341.16;4895950;29;20234;-75
2023/12/16 07:48:48;;;;;;;58.97;11.43;;;;;;;4.39;62.92;98374.47;4927608;29;20280;-75
2023/12/16 07:51:36;;;;;;;;;;;;;;;;;;;;;
2023/12/16 07:54:37;;;;;;;42.57;9.47;;;;;;;4.25;63.08;98340.28;4916436;29;20193;-73
2023/12/16 07:57:08;;;;;;;65.90;13.03;;;;;;;3.61;62.99;98238.63;4901445;29;20186;-73
2023/12/16 07:59:36;;;;;;;32.03;7.07;;;;;;;3.56;62.17;98219.88;4905877;29;20198;-73
2023/12/16 08:02:10;;;;;;;71.07;13.63;;;;;;;4.33;63.69;98337.75;4939733;29;20210;-74
2023/12/16 08:04:39;;;;;;;37.80;8.83;;;;;;;5.04;63.82;98423.16;4893389;29;20380;-75
2023/12/16 08:07:16;;;;;;;60.57;12.63;;;;;;;3.07;63.39;98111.47;4905662;29;20265;-73
2023/12/16 08:09:54;;;;;;;32.67;7.43;;;;;;;3.85;63.30;98206.19;4909150;29;20213;-72
2023/12/16 08:12:22;;;;;;;63.50;13.43;;;;;;;4.81;64.12;98347.94;4910698;29;20202;-74
2023/12/16 08:14:50;;;;;;;37.13;8.30;;;;;;;5.44;62.09;98431.63;4932749;29;20475;-73
2023/12/16 08:17:17;;;;;;;56.20;11.93;;;;;;;5.03;63.86;98366.72;4913648;29;20190;-75
2023/12/16 08:19:46;;;;;;;22.70;5.47;;;;;;;4.27;61.38;98269.38;4912176;29;20606;-76
2023/12/16 08:22:14;;;;;;;65.07;12.93;;;;;;;4.07;61.35;98235.22;4926216;29;20191;-74
2023/12/16 08:24:42;;;;;;;35.97;9.60;;;;;;;3.88;61.74;98185.69;4911719;29;20205;-73
2023/12/16 08:27:09;;;;;;;99.17;31.67;;;;;;;5.21;61.96;98387.19;4909765;29;20195;-74
2023/12/16 08:29:38;;;;;;;35.43;9.50;;;;;;;4.45;62.30;98265.94;4911454;29;20236;-73
2023/12/16 08:32:06;;;;;;;43.73;10.20;;;;;;;5.58;63.24;98450.41;4925213;29;20229;-74
2023/12/16 08:34:33;;;;;;;61.00;13.27;;;;;;;3.92;64.74;98163.47;4927013;29;20276;-74
2023/12/16 08:37:02;;;;;;;52.37;11.60;;;;;;;5.02;62.76;98334.19;4906606;29;20539;-73
2023/12/16 08:39:31;;;;;;;44.27;9.97;;;;;;;4.36;62.87;98250.56;4904404;29;20200;-73
2023/12/16 08:42:24;;;;;;;28.80;7.23;;;;;;;5.59;63.84;98423.84;4912675;29;20257;-73
2023/12/16 08:45:01;;;;;;;63.30;13.13;;;;;;;5.60;63.24;98457.28;4924042;29;20327;-73
2023/12/16 08:47:36;;;;;;;30.97;7.30;;;;;;;5.88;63.93;98452.03;4912434;29;20203;-72
2023/12/16 08:50:14;;;;;;;59.43;12.03;;;;;;;5.47;63.31;98387.94;4901755;29;20289;-74
2023/12/16 08:52:46;;;;;;;33.70;8.17;;;;;;;5.60;63.71;98384.47;4912078;29;20222;-73
2023/12/16 08:55:17;;;;;;;51.70;10.40;;;;;;;3.63;62.36;98203.63;4923359;29;20493;-74
2023/12/16 08:57:58;;;;;;;27.73;6.63;;;;;;;5.20;63.08;98434.25;4916342;29;20427;-76
2023/12/16 09:01:23;;;;;;;49.23;11.00;;;;;;;4.01;62.71;98176.28;4934479;29;20183;-74
2023/12/16 09:04:39;;;;;;;42.60;7.97;;;;;;;5.22;63.58;98410.28;4917313;29;20205;-76
2023/12/16 09:12:34;;;;;;;51.30;11.27;;;;;;;4.77;63.12;98426.63;4952612;29;20543;-72
2023/12/16 09:16:10;;;;;;;24.13;5.87;;;;;;;4.92;63.49;98434.28;4878077;29;20217;-72
2023/12/16 09:18:45;;;;;;;55.93;11.20;;;;;;;5.10;63.63;98412.03;4918994;29;20229;-77
2023/12/16 09:21:27;;;;;;;48.70;10.07;;;;;;;4.71;63.11;98328.28;4918774;29;20232;-72
2023/12/16 09:24:19;;;;;;;45.53;9.10;;;;;;;4.03;60.91;98259.16;4931687;29;20198;-73
2023/12/16 09:27:18;;;;;;;46.93;9.17;;;;;;;4.91;61.55;98424.03;4923514;29;20198;-74
2023/12/16 09:30:38;;;;;;;86.40;16.20;;;;;;;4.38;61.76;98318.06;4903602;29;20275;-73
2023/12/16 09:33:14;;;;;;;77.17;14.03;;;;;;;4.38;63.34;98369.34;4876357;29;20233;-72
2023/12/16 09:35:47;;;;;;;57.50;12.20;;;;;;;3.77;63.64;98248.06;4873818;29;20203;-74
2023/12/16 09:38:24;;;;;;;48.87;10.43;;;;;;;4.81;62.78;98364.19;4907349;29;20257;-71
2023/12/16 09:41:01;;;;;;;78.10;14.50;;;;;;;4.52;60.13;98335.16;4873972;29;20194;-72
2023/12/16 09:43:36;;;;;;;69.40;12.93;;;;;;;5.36;58.81;98436.78;4897619;29;20216;-72
2023/12/16 09:46:15;;;;;;;16.37;3.83;;;;;;;3.44;59.70;98135.38;4929701;29;20240;-71
2023/12/16 09:49:02;;;;;;;99.93;17.40;;;;;;;4.32;61.10;98265.09;4873662;29;20230;-73
2023/12/16 09:52:00;;;;;;;20.73;4.67;;;;;;;3.76;62.29;98220.72;4898346;29;20210;-74
2023/12/16 09:54:41;;;;;;;61.70;11.77;;;;;;;4.83;62.74;98425.75;4886839;29;20190;-74
2023/12/16 09:57:18;;;;;;;49.57;9.50;;;;;;;2.99;62.47;98111.47;4908487;29;20197;-73
2023/12/16 09:59:59;;;;;;;57.77;11.10;;;;;;;4.72;63.23;98427.47;4901427;29;20260;-74
2023/12/16 10:03:07;;;;;;;48.90;8.70;;;;;;;3.21;62.96;98194.22;4930692;29;20197;-73
2023/12/16 10:06:40;;;;;;;48.13;9.87;;;;;;;4.68;62.86;98349.66;4914121;29;20205;-73
2023/12/16 10:09:16;;;;;;;73.20;13.97;;;;;;;5.20;63.14;98421.41;4926210;29;20491;-73
2023/12/16 10:11:43;;;;;;;53.70;11.03;;;;;;;4.77;63.65;98318.88;4900081;29;20251;-74
2023/12/16 10:14:11;;;;;;;40.03;8.70;;;;;;;4.62;63.23;98272.72;4895582;29;20195;-72
2023/12/16 10:16:46;;;;;;;49.40;10.17;;;;;;;5.40;62.13;98427.38;4909136;29;20223;-73
2023/12/16 10:19:18;;;;;;;60.87;12.23;;;;;;;5.58;62.09;98410.19;4894261;29;20217;-73
2023/12/16 10:21:46;;;;;;;14.17;4.53;;;;;;;4.71;62.86;98315.44;4894228;29;20665;-73
2023/12/16 10:24:15;;;;;;;74.57;14.73;;;;;;;5.36;62.41;98433.34;4894705;29;20191;-74
2023/12/16 10:26:49;;;;;;;27.63;6.57;;;;;;;3.56;63.19;98132.81;4916968;29;20202;-73
2023/12/16 10:29:22;;;;;;;72.40;14.67;;;;;;;5.18;63.24;98382.03;4921585;29;20913;-73
2023/12/16 10:32:00;;;;;;;29.20;6.53;;;;;;;4.51;62.77;98330.91;4899314;29;20401;-73
2023/12/16 10:34:29;;;;;;;65.77;12.93;;;;;;;3.49;63.83;98131.94;4907972;29;20192;-76
2023/12/16 10:37:06;;;;;;;23.17;5.13;;;;;;;5.16;63.04;98433.41;4904990;29;20480;-74
2023/12/16 10:39:36;;;;;;;70.37;13.53;;;;;;;4.62;63.74;98313.75;4918424;29;20182;-74
2023/12/16 10:42:09;;;;;;;21.87;5.00;;;;;;;3.91;62.59;98131.03;4920566;29;20201;-73
2023/12/16 10:44:51;;;;;;;57.80;10.83;;;;;;;5.68;60.65;98411.84;4913081;29;20385;-74
2023/12/16 10:47:33;;;;;;;18.47;4.20;;;;;;;4.30;61.84;98135.19;4894287;29;20195;-74
2023/12/16 10:53:31;;;;;;;56.87;10.50;;;;;;;4.74;62.03;98315.47;4889897;29;20279;-75
2023/12/16 10:56:26;;;;;;;61.10;11.17;;;;;;;5.46;62.29;98437.63;4876351;29;20197;-72
2023/12/16 10:59:03;;;;;;;71.83;13.93;;;;;;;5.60;62.38;98433.28;4875952;29;20195;-74
2023/12/16 11:01:39;;;;;;;38.70;7.87;;;;;;;5.06;62.53;98394.91;4880956;29;20188;-73
2023/12/16 11:04:23;;;;;;;58.23;11.70;;;;;;;5.36;62.28;98457.31;4879866;29;20187;-72
2023/12/16 11:07:32;;;;;;;43.90;9.30;;;;;;;5.24;64.07;98367.47;4899346;29;20566;-73
2023/12/16 11:10:05;;;;;;;53.57;10.43;;;;;;;5.40;62.31;98446.19;4905027;29;20241;-73
2023/12/16 11:12:38;;;;;;;48.93;10.20;;;;;;;5.33;63.27;98435.94;4917645;29;20192;-73
2023/12/16 11:15:16;;;;;;;83.20;15.67;;;;;;;4.15;63.57;98228.38;4901004;29;20223;-72
2023/12/16 11:18:04;;;;;;;83.23;16.13;;;;;;;5.25;62.76;98445.38;4885398;29;20199;-74
2023/12/16 11:21:08;;;;;;;49.87;9.60;;;;;;;4.21;62.42;98194.16;4908669;29;20248;-74
2023/12/16 11:23:48;;;;;;;33.80;8.10;;;;;;;4.36;62.97;98169.38;4887110;29;20215;-74
2023/12/16 11:26:16;;;;;;;66.27;13.30;;;;;;;5.58;63.25;98375.91;4878768;29;20204;-74
2023/12/16 11:28:44;;;;;;;15.47;4.70;;;;;;;4.38;62.11;98210.38;4903469;29;20195;-73
2023/12/16 11:31:15;;;;;;;68.03;13.33;;;;;;;3.91;62.29;98187.41;4887142;29;20596;-75
2023/12/16 11:33:44;;;;;;;31.97;6.80;;;;;;;5.18;63.44;98438.53;4906729;29;20213;-74
2023/12/16 11:36:14;;;;;;;79.50;15.50;;;;;;;4.18;63.75;98246.31;4903573;29;20388;-73
2023/12/16 11:38:46;;;;;;;38.13;7.93;;;;;;;3.73;62.83;98143.88;4906073;29;20234;-73
2023/12/16 11:41:37;;;;;;;96.50;17.60;;;;;;;3.85;63.41;98197.66;4887398;29;20224;-73
2023/12/16 11:44:11;;;;;;;91.37;17.00;;;;;;;5.40;63.51;98401.69;4921687;29;20408;-73
2023/12/16 11:46:49;;;;;;;52.67;10.77;;;;;;;5.24;62.77;98362.34;4938583;29;20453;-73
2023/12/16 11:49:22;;;;;;;66.73;13.70;;;;;;;5.77;62.71;98427.19;4927527;29;20198;-72
2023/12/16 11:51:54;;;;;;;25.33;7.13;;;;;;;5.20;63.43;98269.91;4927336;29;20268;-74
2023/12/16 11:54:22;;;;;;;59.40;12.57;;;;;;;5.27;63.32;98269.03;4913883;29;20239;-74
2023/12/16 11:56:50;;;;;;;34.10;8.43;;;;;;;6.38;63.53;98409.72;4938244;29;20186;-73
2023/12/16 11:59:18;;;;;;;82.37;16.17;;;;;;;5.52;62.77;98325.38;4919617;29;20205;-72
2023/12/16 12:01:59;;;;;;;26.53;6.77;;;;;;;5.97;65.08;98437.44;4914943;29;20407;-73
2023/12/16 12:04:27;;;;;;;43.33;10.03;;;;;;;5.30;65.26;98304.97;4911277;29;20190;-73
2023/12/16 12:06:56;;;;;;;62.43;13.17;;;;;;;4.97;64.76;98250.34;4912501;29;20226;-73